sensor_id;sensor_type;location;lat;lon;timestamp;temperature;humidity
19972;DHT22;10147;16.402;102.848;2024-02-21T00:02:01;25.70;99.90
19972;DHT22;10147;16.402;102.848;2024-02-21T00:04:31;25.70;99.90
19972;DHT22;10147;16.402;102.848;2024-02-21T00:07:02;25.70;99.90
19972;DHT22;10147;16.402;102.848;2024-02-21T00:09:32;25.80;99.90
19972;DHT22;10147;16.402;102.848;2024-02-21T00:12:02;25.80;99.90
19972;DHT22;10147;16.402;102.848;2024-02-21T00:14:32;26.00;99.90
19972;DHT22;10147;16.402;102.848;2024-02-21T00:17:02;26.00;99.90
19972;DHT22;10147;16.402;102.848;2024-02-21T00:19:32;26.00;99.90
19972;DHT22;10147;16.402;102.848;2024-02-21T00:22:02;26.00;99.90
19972;DHT22;10147;16.402;102.848;2024-02-21T00:24:34;26.00;99.90
19972;DHT22;10147;16.402;102.848;2024-02-21T00:27:04;26.10;99.90
19972;DHT22;10147;16.402;102.848;2024-02-21T00:29:34;26.10;99.90
19972;DHT22;10147;16.402;102.848;2024-02-21T00:32:04;26.30;99.90
19972;DHT22;10147;16.402;102.848;2024-02-21T00:34:34;26.40;99.90
19972;DHT22;10147;16.402;102.848;2024-02-21T00:37:05;26.40;99.90
19972;DHT22;10147;16.402;102.848;2024-02-21T00:39:35;26.40;99.90
19972;DHT22;10147;16.402;102.848;2024-02-21T00:42:06;26.60;99.90
19972;DHT22;10147;16.402;102.848;2024-02-21T00:44:36;26.60;99.90
19972;DHT22;10147;16.402;102.848;2024-02-21T00:47:06;26.60;99.90
19972;DHT22;10147;16.402;102.848;2024-02-21T00:49:36;26.60;99.90
19972;DHT22;10147;16.402;102.848;2024-02-21T00:52:08;26.80;99.90
19972;DHT22;10147;16.402;102.848;2024-02-21T00:54:38;26.80;99.90
19972;DHT22;10147;16.402;102.848;2024-02-21T00:57:20;26.90;99.90
19972;DHT22;10147;16.402;102.848;2024-02-21T00:59:50;27.00;99.90
19972;DHT22;10147;16.402;102.848;2024-02-21T01:02:21;27.10;99.90
19972;DHT22;10147;16.402;102.848;2024-02-21T01:04:50;27.20;99.90
19972;DHT22;10147;16.402;102.848;2024-02-21T01:07:20;27.30;99.90
19972;DHT22;10147;16.402;102.848;2024-02-21T01:09:51;27.40;99.90
19972;DHT22;10147;16.402;102.848;2024-02-21T01:12:21;27.50;99.90
19972;DHT22;10147;16.402;102.848;2024-02-21T01:14:50;27.60;99.90
19972;DHT22;10147;16.402;102.848;2024-02-21T01:17:21;27.70;99.90
19972;DHT22;10147;16.402;102.848;2024-02-21T01:19:51;27.80;99.90
19972;DHT22;10147;16.402;102.848;2024-02-21T01:22:21;27.90;99.90
19972;DHT22;10147;16.402;102.848;2024-02-21T01:24:51;28.10;99.90
19972;DHT22;10147;16.402;102.848;2024-02-21T01:27:20;28.20;99.90
19972;DHT22;10147;16.402;102.848;2024-02-21T01:29:50;28.30;99.90
19972;DHT22;10147;16.402;102.848;2024-02-21T01:32:21;28.30;99.90
19972;DHT22;10147;16.402;102.848;2024-02-21T01:34:51;28.40;99.90
19972;DHT22;10147;16.402;102.848;2024-02-21T01:37:21;28.50;99.90
19972;DHT22;10147;16.402;102.848;2024-02-21T01:39:51;28.60;99.90
19972;DHT22;10147;16.402;102.848;2024-02-21T01:42:21;28.70;99.90
19972;DHT22;10147;16.402;102.848;2024-02-21T01:44:51;28.80;99.90
19972;DHT22;10147;16.402;102.848;2024-02-21T01:47:22;28.80;99.90
19972;DHT22;10147;16.402;102.848;2024-02-21T01:49:52;28.90;99.90
19972;DHT22;10147;16.402;102.848;2024-02-21T01:52:23;28.90;99.90
19972;DHT22;10147;16.402;102.848;2024-02-21T01:54:53;29.20;99.90
19972;DHT22;10147;16.402;102.848;2024-02-21T01:57:23;29.20;99.90
19972;DHT22;10147;16.402;102.848;2024-02-21T01:59:53;29.30;99.90
19972;DHT22;10147;16.402;102.848;2024-02-21T02:02:23;29.50;99.90
19972;DHT22;10147;16.402;102.848;2024-02-21T02:04:54;29.40;99.90
19972;DHT22;10147;16.402;102.848;2024-02-21T02:07:25;29.60;99.90
19972;DHT22;10147;16.402;102.848;2024-02-21T02:09:56;29.70;99.90
19972;DHT22;10147;16.402;102.848;2024-02-21T02:12:26;29.70;99.90
19972;DHT22;10147;16.402;102.848;2024-02-21T02:15:00;29.90;99.90
19972;DHT22;10147;16.402;102.848;2024-02-21T02:17:31;30.00;99.90
19972;DHT22;10147;16.402;102.848;2024-02-21T02:20:01;30.10;99.90
19972;DHT22;10147;16.402;102.848;2024-02-21T02:22:33;30.20;99.90
19972;DHT22;10147;16.402;102.848;2024-02-21T02:25:05;30.30;99.90
19972;DHT22;10147;16.402;102.848;2024-02-21T02:27:42;30.40;99.90
19972;DHT22;10147;16.402;102.848;2024-02-21T02:30:14;30.30;99.90
19972;DHT22;10147;16.402;102.848;2024-02-21T02:32:45;30.30;99.90
19972;DHT22;10147;16.402;102.848;2024-02-21T02:35:16;30.50;99.90
19972;DHT22;10147;16.402;102.848;2024-02-21T02:37:49;30.60;99.90
19972;DHT22;10147;16.402;102.848;2024-02-21T02:40:20;30.70;99.90
19972;DHT22;10147;16.402;102.848;2024-02-21T02:42:50;30.70;99.90
19972;DHT22;10147;16.402;102.848;2024-02-21T02:45:21;30.70;99.90
19972;DHT22;10147;16.402;102.848;2024-02-21T02:47:54;30.80;99.90
19972;DHT22;10147;16.402;102.848;2024-02-21T02:50:25;30.80;99.90
19972;DHT22;10147;16.402;102.848;2024-02-21T02:52:58;31.00;99.90
19972;DHT22;10147;16.402;102.848;2024-02-21T02:55:28;31.20;99.90
19972;DHT22;10147;16.402;102.848;2024-02-21T02:57:58;31.30;99.90
19972;DHT22;10147;16.402;102.848;2024-02-21T03:00:28;31.10;99.90
19972;DHT22;10147;16.402;102.848;2024-02-21T03:02:58;31.30;99.90
19972;DHT22;10147;16.402;102.848;2024-02-21T03:05:28;31.30;99.90
19972;DHT22;10147;16.402;102.848;2024-02-21T03:07:58;31.40;99.90
19972;DHT22;10147;16.402;102.848;2024-02-21T03:10:28;31.60;99.90
19972;DHT22;10147;16.402;102.848;2024-02-21T03:12:58;31.70;99.90
19972;DHT22;10147;16.402;102.848;2024-02-21T03:15:28;31.70;99.90
19972;DHT22;10147;16.402;102.848;2024-02-21T03:17:58;31.70;99.90
19972;DHT22;10147;16.402;102.848;2024-02-21T03:20:29;31.70;99.90
19972;DHT22;10147;16.402;102.848;2024-02-21T03:22:59;31.80;99.90
19972;DHT22;10147;16.402;102.848;2024-02-21T03:25:29;32.00;99.90
19972;DHT22;10147;16.402;102.848;2024-02-21T03:27:59;32.10;99.90
19972;DHT22;10147;16.402;102.848;2024-02-21T03:30:29;32.10;99.90
19972;DHT22;10147;16.402;102.848;2024-02-21T03:32:58;32.20;99.90
19972;DHT22;10147;16.402;102.848;2024-02-21T03:35:30;32.20;99.90
19972;DHT22;10147;16.402;102.848;2024-02-21T03:37:59;32.40;99.90
19972;DHT22;10147;16.402;102.848;2024-02-21T03:40:29;32.40;99.90
19972;DHT22;10147;16.402;102.848;2024-02-21T03:42:59;32.60;99.90
19972;DHT22;10147;16.402;102.848;2024-02-21T03:45:29;32.70;99.90
19972;DHT22;10147;16.402;102.848;2024-02-21T03:47:59;32.60;99.90
19972;DHT22;10147;16.402;102.848;2024-02-21T03:50:29;32.70;99.90
19972;DHT22;10147;16.402;102.848;2024-02-21T03:53:01;32.90;99.90
19972;DHT22;10147;16.402;102.848;2024-02-21T03:55:31;33.00;99.90
19972;DHT22;10147;16.402;102.848;2024-02-21T03:58:01;33.10;99.90
19972;DHT22;10147;16.402;102.848;2024-02-21T04:00:31;33.10;99.90
19972;DHT22;10147;16.402;102.848;2024-02-21T04:03:02;33.10;99.90
19972;DHT22;10147;16.402;102.848;2024-02-21T04:05:32;33.30;99.90
19972;DHT22;10147;16.402;102.848;2024-02-21T04:08:06;33.40;99.90
19972;DHT22;10147;16.402;102.848;2024-02-21T04:10:37;33.50;99.90
19972;DHT22;10147;16.402;102.848;2024-02-21T04:13:07;33.60;99.90
19972;DHT22;10147;16.402;102.848;2024-02-21T04:15:38;33.60;99.90
19972;DHT22;10147;16.402;102.848;2024-02-21T04:18:07;33.80;99.90
19972;DHT22;10147;16.402;102.848;2024-02-21T04:20:37;33.80;99.90
19972;DHT22;10147;16.402;102.848;2024-02-21T04:23:07;33.80;99.90
19972;DHT22;10147;16.402;102.848;2024-02-21T04:25:37;33.80;99.90
19972;DHT22;10147;16.402;102.848;2024-02-21T04:28:07;33.80;99.90
19972;DHT22;10147;16.402;102.848;2024-02-21T04:30:37;33.90;99.90
19972;DHT22;10147;16.402;102.848;2024-02-21T04:33:07;34.00;99.90
19972;DHT22;10147;16.402;102.848;2024-02-21T04:35:37;34.10;99.90
19972;DHT22;10147;16.402;102.848;2024-02-21T04:38:08;34.30;99.90
19972;DHT22;10147;16.402;102.848;2024-02-21T04:40:38;34.20;99.90
19972;DHT22;10147;16.402;102.848;2024-02-21T04:43:08;34.10;99.90
19972;DHT22;10147;16.402;102.848;2024-02-21T04:45:38;34.20;99.90
19972;DHT22;10147;16.402;102.848;2024-02-21T04:48:09;34.20;99.90
19972;DHT22;10147;16.402;102.848;2024-02-21T04:50:39;34.40;99.90
19972;DHT22;10147;16.402;102.848;2024-02-21T04:53:12;34.60;99.90
19972;DHT22;10147;16.402;102.848;2024-02-21T04:55:42;34.40;99.90
19972;DHT22;10147;16.402;102.848;2024-02-21T04:58:12;34.60;99.90
19972;DHT22;10147;16.402;102.848;2024-02-21T05:00:42;34.60;99.90
19972;DHT22;10147;16.402;102.848;2024-02-21T05:03:14;34.90;99.90
19972;DHT22;10147;16.402;102.848;2024-02-21T05:05:43;35.00;99.90
19972;DHT22;10147;16.402;102.848;2024-02-21T05:08:14;34.70;99.90
19972;DHT22;10147;16.402;102.848;2024-02-21T05:10:43;34.90;99.90
19972;DHT22;10147;16.402;102.848;2024-02-21T05:13:14;34.90;99.90
19972;DHT22;10147;16.402;102.848;2024-02-21T05:15:45;34.90;99.90
19972;DHT22;10147;16.402;102.848;2024-02-21T05:18:15;35.20;99.90
19972;DHT22;10147;16.402;102.848;2024-02-21T05:20:45;35.30;99.90
19972;DHT22;10147;16.402;102.848;2024-02-21T05:23:15;35.30;99.90
19972;DHT22;10147;16.402;102.848;2024-02-21T05:25:45;35.10;99.90
19972;DHT22;10147;16.402;102.848;2024-02-21T05:28:18;35.20;99.90
19972;DHT22;10147;16.402;102.848;2024-02-21T05:30:48;35.50;99.90
19972;DHT22;10147;16.402;102.848;2024-02-21T05:33:18;35.50;99.90
19972;DHT22;10147;16.402;102.848;2024-02-21T05:35:51;35.40;99.90
19972;DHT22;10147;16.402;102.848;2024-02-21T05:38:21;35.20;99.90
19972;DHT22;10147;16.402;102.848;2024-02-21T05:40:51;35.60;99.90
19972;DHT22;10147;16.402;102.848;2024-02-21T05:43:21;35.60;99.90
19972;DHT22;10147;16.402;102.848;2024-02-21T05:45:51;35.80;99.90
19972;DHT22;10147;16.402;102.848;2024-02-21T05:48:24;35.90;99.90
19972;DHT22;10147;16.402;102.848;2024-02-21T05:50:54;36.10;99.90
19972;DHT22;10147;16.402;102.848;2024-02-21T05:53:26;36.20;99.90
19972;DHT22;10147;16.402;102.848;2024-02-21T05:55:56;36.00;99.90
19972;DHT22;10147;16.402;102.848;2024-02-21T05:58:26;36.00;99.90
19972;DHT22;10147;16.402;102.848;2024-02-21T06:00:57;36.10;99.90
19972;DHT22;10147;16.402;102.848;2024-02-21T06:03:29;36.40;99.90
19972;DHT22;10147;16.402;102.848;2024-02-21T06:06:02;36.50;99.90
19972;DHT22;10147;16.402;102.848;2024-02-21T06:08:34;36.10;99.90
19972;DHT22;10147;16.402;102.848;2024-02-21T06:11:04;36.30;99.90
19972;DHT22;10147;16.402;102.848;2024-02-21T06:13:38;36.20;99.90
19972;DHT22;10147;16.402;102.848;2024-02-21T06:16:09;35.90;99.90
19972;DHT22;10147;16.402;102.848;2024-02-21T06:18:39;36.20;99.90
19972;DHT22;10147;16.402;102.848;2024-02-21T06:21:09;36.50;99.90
19972;DHT22;10147;16.402;102.848;2024-02-21T06:23:39;36.80;99.90
19972;DHT22;10147;16.402;102.848;2024-02-21T06:26:09;36.50;99.90
19972;DHT22;10147;16.402;102.848;2024-02-21T06:28:39;36.60;99.90
19972;DHT22;10147;16.402;102.848;2024-02-21T06:31:09;36.60;99.90
19972;DHT22;10147;16.402;102.848;2024-02-21T06:33:38;36.80;99.90
19972;DHT22;10147;16.402;102.848;2024-02-21T06:36:10;36.80;99.90
19972;DHT22;10147;16.402;102.848;2024-02-21T06:38:40;36.60;99.90
19972;DHT22;10147;16.402;102.848;2024-02-21T06:41:17;36.80;99.90
19972;DHT22;10147;16.402;102.848;2024-02-21T06:43:48;36.70;99.90
19972;DHT22;10147;16.402;102.848;2024-02-21T06:46:28;36.70;99.90
19972;DHT22;10147;16.402;102.848;2024-02-21T06:48:59;36.80;99.90
19972;DHT22;10147;16.402;102.848;2024-02-21T06:51:29;37.00;99.90
19972;DHT22;10147;16.402;102.848;2024-02-21T06:54:02;36.80;99.90
19972;DHT22;10147;16.402;102.848;2024-02-21T06:56:32;36.80;99.90
19972;DHT22;10147;16.402;102.848;2024-02-21T06:59:01;36.90;99.90
19972;DHT22;10147;16.402;102.848;2024-02-21T07:01:33;37.20;99.90
19972;DHT22;10147;16.402;102.848;2024-02-21T07:04:04;37.00;99.90
19972;DHT22;10147;16.402;102.848;2024-02-21T07:06:34;37.10;99.90
19972;DHT22;10147;16.402;102.848;2024-02-21T07:09:04;37.00;99.90
19972;DHT22;10147;16.402;102.848;2024-02-21T07:11:34;36.90;99.90
19972;DHT22;10147;16.402;102.848;2024-02-21T07:14:04;36.90;99.20
19972;DHT22;10147;16.402;102.848;2024-02-21T07:16:35;37.20;99.90
19972;DHT22;10147;16.402;102.848;2024-02-21T07:19:05;37.40;99.20
19972;DHT22;10147;16.402;102.848;2024-02-21T07:21:35;37.30;98.70
19972;DHT22;10147;16.402;102.848;2024-02-21T07:24:07;37.60;98.90
19972;DHT22;10147;16.402;102.848;2024-02-21T07:26:44;37.50;97.00
19972;DHT22;10147;16.402;102.848;2024-02-21T07:29:14;37.30;98.50
19972;DHT22;10147;16.402;102.848;2024-02-21T07:31:44;37.20;97.10
19972;DHT22;10147;16.402;102.848;2024-02-21T07:34:15;37.20;97.30
19972;DHT22;10147;16.402;102.848;2024-02-21T07:36:45;37.40;97.50
19972;DHT22;10147;16.402;102.848;2024-02-21T07:39:15;37.40;96.90
19972;DHT22;10147;16.402;102.848;2024-02-21T07:41:48;37.50;97.10
19972;DHT22;10147;16.402;102.848;2024-02-21T07:44:18;36.90;96.70
19972;DHT22;10147;16.402;102.848;2024-02-21T07:46:49;37.00;95.70
19972;DHT22;10147;16.402;102.848;2024-02-21T07:49:19;37.40;95.50
19972;DHT22;10147;16.402;102.848;2024-02-21T07:51:51;37.40;94.60
19972;DHT22;10147;16.402;102.848;2024-02-21T07:54:24;37.50;94.10
19972;DHT22;10147;16.402;102.848;2024-02-21T07:56:54;37.50;93.10
19972;DHT22;10147;16.402;102.848;2024-02-21T07:59:24;37.50;93.50
19972;DHT22;10147;16.402;102.848;2024-02-21T08:01:57;37.60;92.70
19972;DHT22;10147;16.402;102.848;2024-02-21T08:04:29;37.60;93.00
19972;DHT22;10147;16.402;102.848;2024-02-21T08:07:00;37.80;93.00
19972;DHT22;10147;16.402;102.848;2024-02-21T08:09:33;37.80;93.30
19972;DHT22;10147;16.402;102.848;2024-02-21T08:12:05;37.70;92.70
19972;DHT22;10147;16.402;102.848;2024-02-21T08:14:35;37.70;92.10
19972;DHT22;10147;16.402;102.848;2024-02-21T08:17:05;38.00;92.50
19972;DHT22;10147;16.402;102.848;2024-02-21T08:19:36;38.00;92.70
19972;DHT22;10147;16.402;102.848;2024-02-21T08:22:05;38.00;91.80
19972;DHT22;10147;16.402;102.848;2024-02-21T08:24:36;37.50;91.40
19972;DHT22;10147;16.402;102.848;2024-02-21T08:27:06;37.60;91.70
19972;DHT22;10147;16.402;102.848;2024-02-21T08:29:36;37.80;91.50
19972;DHT22;10147;16.402;102.848;2024-02-21T08:32:06;37.70;90.60
19972;DHT22;10147;16.402;102.848;2024-02-21T08:34:36;37.60;91.10
19972;DHT22;10147;16.402;102.848;2024-02-21T08:37:06;37.70;91.40
19972;DHT22;10147;16.402;102.848;2024-02-21T08:39:38;37.70;90.30
19972;DHT22;10147;16.402;102.848;2024-02-21T08:42:08;37.60;90.20
19972;DHT22;10147;16.402;102.848;2024-02-21T08:44:40;37.60;90.60
19972;DHT22;10147;16.402;102.848;2024-02-21T08:47:12;37.70;91.10
19972;DHT22;10147;16.402;102.848;2024-02-21T08:49:42;37.30;91.30
19972;DHT22;10147;16.402;102.848;2024-02-21T08:52:12;37.20;91.30
19972;DHT22;10147;16.402;102.848;2024-02-21T08:54:44;37.20;90.60
19972;DHT22;10147;16.402;102.848;2024-02-21T08:57:18;37.40;90.60
19972;DHT22;10147;16.402;102.848;2024-02-21T08:59:48;37.30;90.00
19972;DHT22;10147;16.402;102.848;2024-02-21T09:02:18;37.40;91.10
19972;DHT22;10147;16.402;102.848;2024-02-21T09:04:49;37.10;88.80
19972;DHT22;10147;16.402;102.848;2024-02-21T09:07:19;37.20;88.50
19972;DHT22;10147;16.402;102.848;2024-02-21T09:09:49;37.10;90.10
19972;DHT22;10147;16.402;102.848;2024-02-21T09:12:18;37.20;90.90
19972;DHT22;10147;16.402;102.848;2024-02-21T09:14:49;37.20;90.10
19972;DHT22;10147;16.402;102.848;2024-02-21T09:17:19;36.80;90.80
19972;DHT22;10147;16.402;102.848;2024-02-21T09:19:50;37.10;92.30
19972;DHT22;10147;16.402;102.848;2024-02-21T09:22:20;37.00;89.90
19972;DHT22;10147;16.402;102.848;2024-02-21T09:24:50;37.10;89.90
19972;DHT22;10147;16.402;102.848;2024-02-21T09:27:20;37.10;90.70
19972;DHT22;10147;16.402;102.848;2024-02-21T09:29:52;36.80;89.70
19972;DHT22;10147;16.402;102.848;2024-02-21T09:32:21;36.80;90.10
19972;DHT22;10147;16.402;102.848;2024-02-21T09:34:52;36.80;90.00
19972;DHT22;10147;16.402;102.848;2024-02-21T09:37:29;36.80;89.80
19972;DHT22;10147;16.402;102.848;2024-02-21T09:39:59;36.90;90.00
19972;DHT22;10147;16.402;102.848;2024-02-21T09:42:39;36.80;90.30
19972;DHT22;10147;16.402;102.848;2024-02-21T09:45:21;36.80;90.10
19972;DHT22;10147;16.402;102.848;2024-02-21T09:51:04;36.70;90.40
19972;DHT22;10147;16.402;102.848;2024-02-21T09:53:38;36.60;90.60
19972;DHT22;10147;16.402;102.848;2024-02-21T09:56:11;36.60;91.00
19972;DHT22;10147;16.402;102.848;2024-02-21T09:58:43;36.70;90.50
19972;DHT22;10147;16.402;102.848;2024-02-21T10:01:13;36.60;90.10
19972;DHT22;10147;16.402;102.848;2024-02-21T10:04:00;36.60;90.70
19972;DHT22;10147;16.402;102.848;2024-02-21T10:06:32;36.50;90.40
19972;DHT22;10147;16.402;102.848;2024-02-21T10:09:03;36.40;90.60
19972;DHT22;10147;16.402;102.848;2024-02-21T10:11:34;36.20;90.80
19972;DHT22;10147;16.402;102.848;2024-02-21T10:14:07;36.30;91.20
19972;DHT22;10147;16.402;102.848;2024-02-21T10:16:41;36.30;91.00
19972;DHT22;10147;16.402;102.848;2024-02-21T10:19:21;36.30;90.90
19972;DHT22;10147;16.402;102.848;2024-02-21T10:22:03;36.20;91.60
19972;DHT22;10147;16.402;102.848;2024-02-21T10:24:37;36.20;91.70
19972;DHT22;10147;16.402;102.848;2024-02-21T10:27:13;36.10;91.60
19972;DHT22;10147;16.402;102.848;2024-02-21T10:29:49;36.00;91.80
19972;DHT22;10147;16.402;102.848;2024-02-21T10:32:21;35.90;91.50
19972;DHT22;10147;16.402;102.848;2024-02-21T10:35:01;35.90;91.50
19972;DHT22;10147;16.402;102.848;2024-02-21T10:37:33;35.90;91.70
19972;DHT22;10147;16.402;102.848;2024-02-21T10:40:03;35.90;91.60
19972;DHT22;10147;16.402;102.848;2024-02-21T10:42:36;35.80;91.70
19972;DHT22;10147;16.402;102.848;2024-02-21T10:45:07;35.70;91.60
19972;DHT22;10147;16.402;102.848;2024-02-21T10:47:39;35.60;91.70
19972;DHT22;10147;16.402;102.848;2024-02-21T10:50:16;35.70;91.90
19972;DHT22;10147;16.402;102.848;2024-02-21T10:52:55;35.70;92.00
19972;DHT22;10147;16.402;102.848;2024-02-21T10:55:41;35.60;92.20
19972;DHT22;10147;16.402;102.848;2024-02-21T10:58:16;35.60;92.40
19972;DHT22;10147;16.402;102.848;2024-02-21T11:00:48;35.50;92.50
19972;DHT22;10147;16.402;102.848;2024-02-21T11:03:18;35.50;92.70
19972;DHT22;10147;16.402;102.848;2024-02-21T11:05:49;35.30;92.70
19972;DHT22;10147;16.402;102.848;2024-02-21T11:08:22;35.20;93.00
19972;DHT22;10147;16.402;102.848;2024-02-21T11:10:59;35.10;93.20
19972;DHT22;10147;16.402;102.848;2024-02-21T11:13:31;35.10;93.40
19972;DHT22;10147;16.402;102.848;2024-02-21T11:16:20;35.10;93.60
19972;DHT22;10147;16.402;102.848;2024-02-21T11:18:52;35.00;93.70
19972;DHT22;10147;16.402;102.848;2024-02-21T11:21:33;35.00;95.30
19972;DHT22;10147;16.402;102.848;2024-02-21T11:24:04;34.90;94.50
19972;DHT22;10147;16.402;102.848;2024-02-21T11:26:37;35.00;94.90
19972;DHT22;10147;16.402;102.848;2024-02-21T11:29:08;34.90;95.60
19972;DHT22;10147;16.402;102.848;2024-02-21T11:31:43;34.90;95.60
19972;DHT22;10147;16.402;102.848;2024-02-21T11:34:16;34.90;97.20
19972;DHT22;10147;16.402;102.848;2024-02-21T11:36:52;34.70;98.20
19972;DHT22;10147;16.402;102.848;2024-02-21T11:39:25;34.70;99.70
19972;DHT22;10147;16.402;102.848;2024-02-21T11:42:08;34.60;99.90
19972;DHT22;10147;16.402;102.848;2024-02-21T11:44:38;34.50;99.90
19972;DHT22;10147;16.402;102.848;2024-02-21T11:47:13;34.40;99.90
19972;DHT22;10147;16.402;102.848;2024-02-21T11:49:46;34.40;99.90
19972;DHT22;10147;16.402;102.848;2024-02-21T11:52:18;34.30;99.90
19972;DHT22;10147;16.402;102.848;2024-02-21T11:54:50;34.20;99.90
19972;DHT22;10147;16.402;102.848;2024-02-21T11:57:21;34.20;99.90
19972;DHT22;10147;16.402;102.848;2024-02-21T11:59:53;34.20;99.90
19972;DHT22;10147;16.402;102.848;2024-02-21T12:02:28;34.20;99.90
19972;DHT22;10147;16.402;102.848;2024-02-21T12:04:57;34.10;99.90
19972;DHT22;10147;16.402;102.848;2024-02-21T12:07:28;34.00;99.90
19972;DHT22;10147;16.402;102.848;2024-02-21T12:09:59;34.00;99.90
19972;DHT22;10147;16.402;102.848;2024-02-21T12:12:30;33.90;99.90
19972;DHT22;10147;16.402;102.848;2024-02-21T12:14:59;33.90;99.90
19972;DHT22;10147;16.402;102.848;2024-02-21T12:17:30;33.60;99.90
19972;DHT22;10147;16.402;102.848;2024-02-21T12:20:00;33.50;99.90
19972;DHT22;10147;16.402;102.848;2024-02-21T12:22:31;33.30;99.90
19972;DHT22;10147;16.402;102.848;2024-02-21T12:25:15;33.30;99.90
19972;DHT22;10147;16.402;102.848;2024-02-21T12:27:48;33.30;99.90
19972;DHT22;10147;16.402;102.848;2024-02-21T12:30:18;33.40;99.90
19972;DHT22;10147;16.402;102.848;2024-02-21T12:32:49;33.40;99.90
19972;DHT22;10147;16.402;102.848;2024-02-21T12:35:19;33.40;99.90
19972;DHT22;10147;16.402;102.848;2024-02-21T12:37:49;33.40;99.90
19972;DHT22;10147;16.402;102.848;2024-02-21T12:40:19;33.40;99.90
19972;DHT22;10147;16.402;102.848;2024-02-21T12:42:49;33.40;99.90
19972;DHT22;10147;16.402;102.848;2024-02-21T12:45:20;33.40;99.90
19972;DHT22;10147;16.402;102.848;2024-02-21T12:47:50;33.30;99.90
19972;DHT22;10147;16.402;102.848;2024-02-21T12:50:20;32.90;99.90
19972;DHT22;10147;16.402;102.848;2024-02-21T12:52:52;32.40;99.90
19972;DHT22;10147;16.402;102.848;2024-02-21T12:55:22;32.60;99.90
19972;DHT22;10147;16.402;102.848;2024-02-21T12:57:52;32.50;99.90
19972;DHT22;10147;16.402;102.848;2024-02-21T13:00:24;32.50;99.90
19972;DHT22;10147;16.402;102.848;2024-02-21T13:03:06;32.20;99.90
19972;DHT22;10147;16.402;102.848;2024-02-21T13:05:36;32.10;99.90
19972;DHT22;10147;16.402;102.848;2024-02-21T13:08:07;32.30;99.90
19972;DHT22;10147;16.402;102.848;2024-02-21T13:10:38;32.30;99.90
19972;DHT22;10147;16.402;102.848;2024-02-21T13:13:08;32.30;99.90
19972;DHT22;10147;16.402;102.848;2024-02-21T13:15:38;32.20;99.90
19972;DHT22;10147;16.402;102.848;2024-02-21T13:18:12;32.00;99.90
19972;DHT22;10147;16.402;102.848;2024-02-21T13:20:42;31.70;99.90
19972;DHT22;10147;16.402;102.848;2024-02-21T13:23:12;32.10;99.90
19972;DHT22;10147;16.402;102.848;2024-02-21T13:25:42;32.20;99.90
19972;DHT22;10147;16.402;102.848;2024-02-21T13:28:14;32.10;99.90
19972;DHT22;10147;16.402;102.848;2024-02-21T13:30:45;32.20;99.90
19972;DHT22;10147;16.402;102.848;2024-02-21T13:33:19;31.80;99.90
19972;DHT22;10147;16.402;102.848;2024-02-21T13:35:48;32.00;99.90
19972;DHT22;10147;16.402;102.848;2024-02-21T13:38:18;31.80;99.90
19972;DHT22;10147;16.402;102.848;2024-02-21T13:40:48;32.10;99.90
19972;DHT22;10147;16.402;102.848;2024-02-21T13:43:19;31.50;99.90
19972;DHT22;10147;16.402;102.848;2024-02-21T13:45:58;31.70;99.90
19972;DHT22;10147;16.402;102.848;2024-02-21T13:48:30;31.80;99.90
19972;DHT22;10147;16.402;102.848;2024-02-21T13:51:00;32.00;99.90
19972;DHT22;10147;16.402;102.848;2024-02-21T13:53:35;32.10;99.90
19972;DHT22;10147;16.402;102.848;2024-02-21T13:56:05;32.10;99.90
19972;DHT22;10147;16.402;102.848;2024-02-21T13:58:35;31.90;99.90
19972;DHT22;10147;16.402;102.848;2024-02-21T14:01:10;31.90;99.90
19972;DHT22;10147;16.402;102.848;2024-02-21T14:03:40;31.80;99.90
19972;DHT22;10147;16.402;102.848;2024-02-21T14:06:10;31.70;99.90
19972;DHT22;10147;16.402;102.848;2024-02-21T14:08:41;31.80;99.90
19972;DHT22;10147;16.402;102.848;2024-02-21T14:11:12;32.00;99.90
19972;DHT22;10147;16.402;102.848;2024-02-21T14:13:44;31.90;99.90
19972;DHT22;10147;16.402;102.848;2024-02-21T14:16:14;31.60;99.90
19972;DHT22;10147;16.402;102.848;2024-02-21T14:18:44;31.70;99.90
19972;DHT22;10147;16.402;102.848;2024-02-21T14:21:14;31.70;99.90
19972;DHT22;10147;16.402;102.848;2024-02-21T14:23:44;31.50;99.90
19972;DHT22;10147;16.402;102.848;2024-02-21T14:26:14;31.60;99.90
19972;DHT22;10147;16.402;102.848;2024-02-21T14:28:44;31.50;99.90
19972;DHT22;10147;16.402;102.848;2024-02-21T14:31:18;31.70;99.90
19972;DHT22;10147;16.402;102.848;2024-02-21T14:33:48;31.80;99.90
19972;DHT22;10147;16.402;102.848;2024-02-21T14:36:18;31.80;99.90
19972;DHT22;10147;16.402;102.848;2024-02-21T14:38:48;31.60;99.90
19972;DHT22;10147;16.402;102.848;2024-02-21T14:41:18;31.70;99.90
19972;DHT22;10147;16.402;102.848;2024-02-21T14:43:49;31.60;99.90
19972;DHT22;10147;16.402;102.848;2024-02-21T14:46:19;31.50;99.90
19972;DHT22;10147;16.402;102.848;2024-02-21T14:48:49;31.10;99.90
19972;DHT22;10147;16.402;102.848;2024-02-21T14:51:22;31.20;99.90
19972;DHT22;10147;16.402;102.848;2024-02-21T14:53:52;31.10;99.90
19972;DHT22;10147;16.402;102.848;2024-02-21T14:56:24;31.00;99.90
19972;DHT22;10147;16.402;102.848;2024-02-21T14:58:54;31.10;99.90
19972;DHT22;10147;16.402;102.848;2024-02-21T15:01:38;31.20;99.90
19972;DHT22;10147;16.402;102.848;2024-02-21T15:04:08;31.40;99.90
19972;DHT22;10147;16.402;102.848;2024-02-21T15:06:41;31.30;99.90
19972;DHT22;10147;16.402;102.848;2024-02-21T15:09:12;31.40;99.90
19972;DHT22;10147;16.402;102.848;2024-02-21T15:11:44;31.40;99.90
19972;DHT22;10147;16.402;102.848;2024-02-21T15:14:14;31.10;99.90
19972;DHT22;10147;16.402;102.848;2024-02-21T15:16:44;30.80;99.90
19972;DHT22;10147;16.402;102.848;2024-02-21T15:19:17;30.80;99.90
19972;DHT22;10147;16.402;102.848;2024-02-21T15:21:48;30.60;99.90
19972;DHT22;10147;16.402;102.848;2024-02-21T15:24:17;30.70;99.90
19972;DHT22;10147;16.402;102.848;2024-02-21T15:26:47;30.90;99.90
19972;DHT22;10147;16.402;102.848;2024-02-21T15:29:17;31.00;99.90
19972;DHT22;10147;16.402;102.848;2024-02-21T15:31:47;31.00;99.90